createdAt,value
2019-04-03T00:01:04.742Z,8.20
2019-04-03T00:03:30.482Z,9.50
2019-04-03T00:05:56.453Z,8.80
2019-04-03T00:08:22.355Z,8.40
2019-04-03T00:10:48.216Z,9.13
2019-04-03T00:13:14.091Z,9.67
2019-04-03T00:15:39.955Z,8.73
2019-04-03T00:18:05.829Z,9.43
2019-04-03T00:20:31.797Z,8.97
2019-04-03T00:22:57.680Z,9.47
2019-04-03T00:25:23.533Z,8.80
2019-04-03T00:27:50.696Z,10.13
2019-04-03T00:30:17.111Z,9.77
2019-04-03T00:32:42.971Z,10.10
2019-04-03T00:35:09.154Z,9.70
2019-04-03T00:37:35.028Z,8.93
2019-04-03T00:40:00.973Z,7.90
2019-04-03T00:42:26.817Z,8.40
2019-04-03T00:44:54.239Z,8.30
2019-04-03T00:47:20.429Z,9.07
2019-04-03T00:49:46.267Z,8.57
2019-04-03T00:52:12.176Z,7.93
2019-04-03T00:54:37.980Z,7.70
2019-04-03T00:57:04.108Z,7.87
2019-04-03T00:59:30.049Z,7.47
2019-04-03T01:01:56.735Z,8.30
2019-04-03T01:04:22.918Z,8.20
2019-04-03T01:06:48.743Z,8.43
2019-04-03T01:09:14.673Z,9.30
2019-04-03T01:11:40.524Z,8.67
2019-04-03T01:14:06.385Z,8.00
2019-04-03T01:16:33.054Z,9.60
2019-04-03T01:18:59.384Z,7.20
2019-04-03T01:21:25.333Z,7.43
2019-04-03T01:23:51.166Z,8.13
2019-04-03T01:26:17.004Z,7.40
2019-04-03T01:28:42.864Z,9.20
2019-04-03T01:31:08.694Z,7.87
2019-04-03T01:33:34.536Z,7.67
2019-04-03T01:36:00.479Z,9.50
2019-04-03T01:38:26.303Z,8.57
2019-04-03T01:40:52.155Z,7.73
2019-04-03T01:43:17.994Z,8.67
2019-04-03T01:45:43.829Z,8.17
2019-04-03T01:48:09.675Z,7.97
2019-04-03T01:50:35.542Z,9.83
2019-04-03T01:53:02.431Z,9.63
2019-04-03T01:55:28.705Z,8.50
2019-04-03T01:57:54.589Z,8.27
2019-04-03T02:00:20.454Z,8.90
2019-04-03T02:02:46.307Z,11.00
2019-04-03T02:05:13.244Z,11.57
2019-04-03T02:07:39.198Z,12.47
2019-04-03T02:10:15.971Z,12.27
2019-04-03T02:12:42.543Z,13.93
2019-04-03T02:15:08.504Z,13.07
2019-04-03T02:17:34.409Z,15.13
2019-04-03T02:20:00.235Z,14.43
2019-04-03T02:22:26.091Z,14.40
2019-04-03T02:24:52.234Z,13.67
2019-04-03T02:27:18.115Z,16.30
2019-04-03T02:29:43.955Z,11.43
2019-04-03T02:32:09.835Z,13.40
2019-04-03T02:34:36.622Z,13.30
2019-04-03T02:37:02.767Z,13.77
2019-04-03T02:39:28.921Z,13.10
2019-04-03T02:41:54.925Z,13.80
2019-04-03T02:44:20.853Z,13.43
2019-04-03T02:46:46.746Z,14.47
2019-04-03T02:49:12.654Z,12.07
2019-04-03T02:51:39.415Z,13.43
2019-04-03T02:54:09.097Z,11.33
2019-04-03T02:56:34.959Z,13.60
2019-04-03T02:59:00.777Z,11.93
2019-04-03T03:01:26.598Z,11.87
2019-04-03T03:03:52.475Z,11.20
2019-04-03T03:06:18.425Z,12.67
2019-04-03T03:08:44.443Z,13.50
2019-04-03T03:11:10.501Z,11.80
2019-04-03T03:13:36.759Z,12.00
2019-04-03T03:16:02.718Z,11.87
2019-04-03T03:18:28.798Z,11.17
2019-04-03T03:20:55.207Z,10.63
2019-04-03T03:23:23.088Z,11.23
2019-04-03T03:25:49.054Z,11.43
2019-04-03T03:28:15.272Z,12.63
2019-04-03T03:30:50.698Z,11.17
2019-04-03T03:33:28.279Z,12.30
2019-04-03T03:35:41.636Z,12.63
2019-04-03T03:38:07.101Z,10.70
2019-04-03T03:40:32.946Z,9.97
2019-04-03T03:42:58.769Z,9.47
2019-04-03T03:45:26.129Z,10.00
2019-04-03T03:47:52.123Z,10.00
2019-04-03T03:50:24.850Z,10.70
2019-04-03T03:52:51.296Z,12.50
2019-04-03T03:55:17.157Z,10.50
2019-04-03T03:57:43.207Z,11.40
2019-04-03T04:00:09.535Z,10.27
2019-04-03T04:02:36.751Z,11.37
2019-04-03T04:05:08.766Z,25.33
2019-04-03T04:07:36.308Z,21.03
2019-04-03T04:10:00.205Z,9.77
2019-04-03T04:12:26.495Z,10.20
2019-04-03T04:14:55.360Z,9.60
2019-04-03T04:17:20.113Z,9.63
2019-04-03T04:19:46.179Z,10.40
2019-04-03T04:22:15.601Z,10.70
2019-04-03T04:24:40.117Z,10.13
2019-04-03T04:27:06.351Z,11.27
2019-04-03T04:29:32.313Z,9.40
2019-04-03T04:31:58.146Z,11.70
2019-04-03T04:34:23.979Z,10.70
2019-04-03T04:36:49.994Z,10.17
2019-04-03T04:39:16.122Z,9.97
2019-04-03T04:41:42.067Z,10.83
2019-04-03T04:44:09.970Z,10.43
2019-04-03T04:46:35.965Z,10.70
2019-04-03T04:49:01.908Z,10.50
2019-04-03T04:51:27.949Z,10.93
2019-04-03T04:53:53.761Z,13.37
2019-04-03T04:56:19.628Z,12.87
2019-04-03T04:58:45.671Z,14.10
2019-04-03T05:01:11.547Z,13.03
2019-04-03T05:03:37.443Z,12.53
2019-04-03T05:06:03.311Z,12.63
2019-04-03T05:08:29.262Z,14.90
2019-04-03T05:10:55.107Z,17.27
2019-04-03T05:13:20.940Z,19.40
2019-04-03T05:15:46.797Z,18.20
2019-04-03T05:18:12.650Z,20.97
2019-04-03T05:20:38.578Z,19.70
2019-04-03T05:23:04.470Z,21.27
2019-04-03T05:25:30.475Z,18.93
2019-04-03T05:27:56.469Z,18.60
2019-04-03T05:30:27.228Z,17.70
2019-04-03T05:32:53.193Z,18.30
2019-04-03T05:35:19.010Z,17.07
2019-04-03T05:37:44.851Z,18.00
2019-04-03T05:40:10.694Z,18.77
2019-04-03T05:42:36.548Z,17.80
2019-04-03T05:45:04.915Z,19.23
2019-04-03T05:47:30.781Z,20.07
2019-04-03T05:49:56.651Z,17.37
2019-04-03T05:52:22.621Z,17.40
2019-04-03T05:54:48.425Z,16.77
2019-04-03T05:57:14.522Z,16.73
2019-04-03T05:59:43.321Z,17.80
2019-04-03T06:02:14.618Z,17.97
2019-04-03T06:04:36.121Z,18.50
2019-04-03T06:07:02.002Z,18.00
2019-04-03T06:09:28.282Z,18.60
2019-04-03T06:11:54.146Z,17.07
2019-04-03T06:14:22.782Z,16.90
2019-04-03T06:16:47.753Z,16.70
2019-04-03T06:19:13.616Z,16.80
2019-04-03T06:21:39.465Z,18.33
2019-04-03T06:24:05.328Z,16.23
2019-04-03T06:26:31.149Z,14.53
2019-04-03T06:28:56.977Z,17.83
2019-04-03T06:31:24.303Z,18.00
2019-04-03T06:33:51.617Z,28.47
2019-04-03T06:36:18.114Z,17.97
2019-04-03T06:38:44.407Z,18.27
2019-04-03T06:41:10.521Z,18.60
2019-04-03T06:43:36.375Z,17.50
2019-04-03T06:46:02.225Z,17.63
2019-04-03T06:48:28.531Z,16.07
2019-04-03T06:50:54.470Z,17.47
2019-04-03T06:53:20.316Z,17.90
2019-04-03T06:55:46.355Z,16.40
2019-04-03T06:58:12.422Z,16.80
2019-04-03T07:00:38.387Z,18.63
2019-04-03T07:03:04.564Z,19.23
2019-04-03T07:05:30.454Z,21.93
2019-04-03T07:07:56.343Z,24.13
2019-04-03T07:10:25.729Z,21.57
2019-04-03T07:12:50.080Z,20.37
2019-04-03T07:15:15.927Z,20.00
2019-04-03T07:17:41.819Z,18.60
2019-04-03T07:20:14.585Z,16.73
2019-04-03T07:22:35.521Z,18.00
2019-04-03T07:25:03.500Z,16.80
2019-04-03T07:27:29.124Z,16.43
2019-04-03T07:29:54.957Z,16.63
2019-04-03T07:32:20.803Z,17.33
2019-04-03T07:34:46.624Z,13.97
2019-04-03T07:37:15.223Z,15.90
2019-04-03T07:39:40.226Z,15.90
2019-04-03T07:42:06.077Z,16.63
2019-04-03T07:44:31.954Z,17.80
2019-04-03T07:46:57.906Z,16.00
2019-04-03T07:49:23.767Z,17.80
2019-04-03T07:51:49.856Z,16.03
2019-04-03T07:54:15.945Z,18.90
2019-04-03T07:56:42.003Z,17.30
2019-04-03T07:59:08.308Z,17.90
2019-04-03T08:01:34.123Z,17.67
2019-04-03T08:03:59.972Z,15.43
2019-04-03T08:06:26.106Z,14.83
2019-04-03T08:09:05.842Z,17.03
2019-04-03T08:11:19.954Z,15.97
2019-04-03T08:13:45.791Z,18.23
2019-04-03T08:16:11.856Z,17.70
2019-04-03T08:18:37.770Z,18.17
2019-04-03T08:21:03.731Z,15.03
2019-04-03T08:23:29.564Z,17.03
2019-04-03T08:25:55.410Z,17.53
2019-04-03T08:28:21.260Z,15.70
2019-04-03T08:30:47.092Z,17.43
2019-04-03T08:33:17.587Z,18.40
2019-04-03T08:35:40.906Z,16.40
2019-04-03T08:38:07.010Z,16.87
2019-04-03T08:40:32.916Z,17.23
2019-04-03T08:43:00.670Z,17.00
2019-04-03T08:45:26.517Z,16.23
2019-04-03T08:47:52.386Z,17.27
2019-04-03T08:50:18.257Z,15.70
2019-04-03T08:52:44.212Z,17.40
2019-04-03T08:55:12.643Z,17.57
2019-04-03T08:57:37.773Z,18.97
2019-04-03T09:00:05.718Z,18.20
2019-04-03T09:02:31.799Z,16.77
2019-04-03T09:04:57.915Z,18.97
2019-04-03T09:07:24.918Z,17.30
2019-04-03T09:09:51.403Z,16.17
2019-04-03T09:12:17.254Z,17.00
2019-04-03T09:14:43.093Z,16.30
2019-04-03T09:17:08.944Z,17.37
2019-04-03T09:19:35.057Z,17.40
2019-04-03T09:22:01.264Z,15.83
2019-04-03T09:24:29.660Z,16.10
2019-04-03T09:26:55.239Z,17.40
2019-04-03T09:29:21.176Z,16.87
2019-04-03T09:31:47.467Z,16.80
2019-04-03T09:34:13.388Z,19.33
2019-04-03T09:36:39.225Z,19.27
2019-04-03T09:39:08.399Z,17.67
2019-04-03T09:41:34.356Z,18.03
2019-04-03T09:44:00.215Z,17.40
2019-04-03T09:46:26.050Z,17.33
2019-04-03T09:48:51.901Z,17.40
2019-04-03T09:51:18.671Z,16.50
2019-04-03T09:53:45.550Z,17.73
2019-04-03T09:56:11.409Z,18.77
2019-04-03T09:58:37.247Z,17.43
2019-04-03T10:01:03.388Z,20.30
2019-04-03T10:03:31.276Z,20.00
2019-04-03T10:05:58.183Z,19.27
2019-04-03T10:08:24.876Z,19.40
2019-04-03T10:10:50.768Z,18.00
2019-04-03T10:13:16.767Z,19.30
2019-04-03T10:15:42.663Z,19.80
2019-04-03T10:18:09.554Z,18.10
2019-04-03T10:20:35.945Z,17.97
2019-04-03T10:23:01.796Z,16.67
2019-04-03T10:25:27.726Z,16.80
2019-04-03T10:27:53.600Z,17.30
2019-04-03T10:30:21.595Z,18.83
2019-04-03T10:32:47.383Z,19.37
2019-04-03T10:35:13.519Z,17.43
2019-04-03T10:37:39.369Z,20.20
2019-04-03T10:40:06.401Z,18.30
2019-04-03T10:42:32.641Z,18.90
2019-04-03T10:44:58.581Z,18.40
2019-04-03T10:47:30.203Z,18.47
2019-04-03T10:49:52.195Z,17.70
2019-04-03T10:52:18.309Z,17.20
2019-04-03T10:54:44.258Z,18.33
2019-04-03T10:57:10.174Z,18.43
2019-04-03T10:59:36.031Z,18.70
2019-04-03T11:02:02.063Z,19.10
2019-04-03T11:04:28.228Z,17.57
2019-04-03T11:06:54.245Z,16.17
2019-04-03T11:09:20.091Z,18.40
2019-04-03T11:11:45.920Z,19.13
2019-04-03T11:14:11.904Z,19.33
2019-04-03T11:16:39.149Z,20.90
2019-04-03T11:19:06.973Z,18.63
2019-04-03T11:21:33.078Z,20.50
2019-04-03T11:23:59.256Z,18.40
2019-04-03T11:26:25.943Z,18.20
2019-04-03T11:28:51.853Z,19.40
2019-04-03T11:31:26.223Z,19.13
2019-04-03T11:33:46.308Z,19.60
2019-04-03T11:36:12.605Z,19.67
2019-04-03T11:38:38.430Z,17.83
2019-04-03T11:41:13.091Z,18.43
2019-04-03T11:43:32.492Z,18.60
2019-04-03T11:45:58.393Z,18.33
2019-04-03T11:48:26.662Z,15.83
2019-04-03T11:50:52.217Z,17.87
2019-04-03T11:53:18.091Z,18.37
2019-04-03T11:55:44.250Z,16.43
2019-04-03T11:58:10.309Z,15.20
2019-04-03T12:00:38.146Z,16.30
2019-04-03T12:03:04.541Z,13.97
2019-04-03T12:05:30.472Z,14.20
2019-04-03T12:07:57.350Z,14.07
2019-04-03T12:10:25.046Z,12.63
2019-04-03T12:12:51.350Z,13.17
2019-04-03T12:15:20.053Z,13.90
2019-04-03T12:17:45.588Z,12.37
2019-04-03T12:20:12.220Z,12.20
2019-04-03T12:22:39.601Z,11.00
2019-04-03T12:25:06.043Z,9.90
2019-04-03T12:27:31.890Z,10.30
2019-04-03T12:29:57.765Z,10.90
2019-04-03T12:32:36.123Z,7.93
2019-04-03T12:34:51.339Z,10.53
2019-04-03T12:37:18.676Z,9.73
2019-04-03T12:39:45.122Z,9.87
2019-04-03T12:42:11.308Z,8.93
2019-04-03T12:44:37.111Z,9.77
2019-04-03T12:47:07.040Z,11.10
2019-04-03T12:49:31.261Z,10.50
2019-04-03T12:51:57.164Z,11.33
2019-04-03T12:54:23.296Z,11.03
2019-04-03T12:56:49.324Z,10.00
2019-04-03T12:59:15.258Z,9.70
2019-04-03T13:01:41.209Z,8.57
2019-04-03T13:04:07.181Z,7.17
2019-04-03T13:06:32.992Z,7.60
2019-04-03T13:08:58.837Z,8.40
2019-04-03T13:11:24.694Z,8.03
2019-04-03T13:13:50.566Z,9.07
2019-04-03T13:16:16.378Z,9.17
2019-04-03T13:18:42.230Z,9.30
2019-04-03T13:21:09.255Z,9.20
2019-04-03T13:23:35.602Z,8.90
2019-04-03T13:26:02.058Z,9.67
2019-04-03T13:28:28.087Z,7.73
2019-04-03T13:30:54.215Z,8.87
2019-04-03T13:33:20.175Z,8.93
2019-04-03T13:35:47.164Z,10.00
2019-04-03T13:38:13.814Z,9.53
2019-04-03T13:40:39.706Z,8.37
2019-04-03T13:43:05.552Z,10.47
2019-04-03T13:45:31.972Z,7.90
2019-04-03T13:47:57.968Z,7.40
2019-04-03T13:50:24.107Z,9.00
2019-04-03T13:52:50.674Z,10.30
2019-04-03T13:55:16.731Z,9.57
2019-04-03T13:57:42.716Z,9.60
2019-04-03T14:00:18.137Z,7.47
2019-04-03T14:02:36.823Z,8.10
2019-04-03T14:05:06.853Z,8.40
2019-04-03T14:07:32.987Z,7.93
2019-04-03T14:09:59.268Z,8.60
2019-04-03T14:12:25.139Z,8.73
2019-04-03T14:14:51.217Z,7.97
2019-04-03T14:17:17.279Z,8.37
2019-04-03T14:19:46.297Z,8.23
2019-04-03T14:22:11.506Z,6.83
2019-04-03T14:24:44.228Z,7.03
2019-04-03T14:27:18.872Z,7.00
2019-04-03T14:29:33.151Z,6.40
2019-04-03T14:31:59.022Z,7.90
2019-04-03T14:34:24.883Z,7.07
2019-04-03T14:36:51.101Z,6.57
2019-04-03T14:39:17.169Z,5.93
2019-04-03T14:41:43.090Z,6.43
2019-04-03T14:44:09.783Z,6.13
2019-04-03T14:46:36.179Z,5.43
2019-04-03T14:49:03.251Z,4.57
2019-04-03T14:51:29.652Z,5.13
2019-04-03T14:53:55.569Z,5.27
2019-04-03T14:56:21.731Z,5.83
2019-04-03T14:58:47.637Z,5.70
2019-04-03T15:01:13.471Z,5.73
2019-04-03T15:03:39.328Z,6.10
2019-04-03T15:06:05.809Z,6.27
2019-04-03T15:08:31.749Z,6.20
2019-04-03T15:10:57.773Z,5.83
2019-04-03T15:13:24.354Z,6.13
2019-04-03T15:15:50.325Z,7.03
2019-04-03T15:18:16.454Z,6.33
2019-04-03T15:20:42.421Z,6.90
2019-04-03T15:23:08.445Z,5.70
2019-04-03T15:25:34.274Z,6.77
2019-04-03T15:28:00.463Z,6.20
2019-04-03T15:30:26.387Z,8.67
2019-04-03T15:32:52.846Z,7.70
2019-04-03T15:35:18.823Z,7.00
2019-04-03T15:37:44.655Z,9.10
2019-04-03T15:40:10.789Z,8.47
2019-04-03T15:42:40.285Z,8.00
2019-04-03T15:45:06.629Z,7.33
2019-04-03T15:47:38.694Z,6.97
2019-04-03T15:50:06.258Z,7.00
2019-04-03T15:52:32.577Z,7.00
2019-04-03T15:54:58.493Z,10.20
2019-04-03T15:57:24.439Z,8.90
2019-04-03T15:59:52.150Z,10.33
2019-04-03T16:02:18.102Z,9.17
2019-04-03T16:04:44.644Z,9.83
2019-04-03T16:07:10.726Z,10.27
2019-04-03T16:09:37.074Z,10.33
2019-04-03T16:12:05.700Z,9.57
2019-04-03T16:14:30.963Z,9.27
2019-04-03T16:16:57.162Z,9.83
2019-04-03T16:19:23.001Z,11.67
2019-04-03T16:21:48.882Z,10.50
2019-04-03T16:24:14.770Z,10.00
2019-04-03T16:26:40.680Z,10.23
2019-04-03T16:29:08.544Z,10.13
2019-04-03T16:31:34.836Z,10.83
2019-04-03T16:34:00.654Z,10.60
2019-04-03T16:36:26.877Z,8.60
2019-04-03T16:38:52.746Z,10.40
2019-04-03T16:41:18.970Z,10.90
2019-04-03T16:43:44.791Z,10.63
2019-04-03T16:46:11.660Z,11.67
2019-04-03T16:48:39.172Z,11.23
2019-04-03T16:51:05.633Z,11.43
2019-04-03T16:53:32.070Z,10.87
2019-04-03T16:55:58.019Z,11.60
2019-04-03T16:58:26.393Z,11.10
2019-04-03T17:00:51.615Z,11.67
2019-04-03T17:03:17.469Z,11.40
2019-04-03T17:05:44.633Z,10.70
2019-04-03T17:08:11.276Z,11.23
2019-04-03T17:10:37.207Z,12.20
2019-04-03T17:13:03.376Z,11.00
2019-04-03T17:15:29.194Z,10.97
2019-04-03T17:17:55.093Z,10.47
2019-04-03T17:20:22.579Z,11.50
2019-04-03T17:22:48.919Z,11.47
2019-04-03T17:25:15.150Z,11.30
2019-04-03T17:27:41.540Z,12.20
2019-04-03T17:30:09.347Z,11.47
2019-04-03T17:32:35.449Z,13.40
2019-04-03T17:35:01.479Z,15.00
2019-04-03T17:37:30.735Z,13.37
2019-04-03T17:39:55.246Z,11.10
2019-04-03T17:42:21.141Z,14.60
2019-04-03T17:44:47.026Z,16.43
2019-04-03T17:47:12.884Z,19.33
2019-04-03T17:49:39.022Z,17.80
2019-04-03T17:52:05.644Z,20.07
2019-04-03T17:54:31.542Z,16.43
2019-04-03T17:56:57.741Z,15.13
2019-04-03T17:59:23.631Z,13.33
2019-04-03T18:01:50.652Z,11.67
2019-04-03T18:04:20.079Z,11.63
2019-04-03T18:06:46.601Z,11.27
2019-04-03T18:09:17.018Z,12.77
2019-04-03T18:11:43.004Z,11.93
2019-04-03T18:14:08.846Z,12.60
2019-04-03T18:16:34.806Z,12.27
2019-04-03T18:19:00.671Z,12.33
2019-04-03T18:21:26.503Z,11.80
2019-04-03T18:23:53.300Z,12.70
2019-04-03T18:26:19.341Z,12.70
2019-04-03T18:28:45.202Z,12.27
2019-04-03T18:31:11.793Z,12.00
2019-04-03T18:33:38.831Z,11.77
2019-04-03T18:36:04.828Z,13.00
2019-04-03T18:38:30.704Z,11.80
2019-04-03T18:40:56.809Z,10.83
2019-04-03T18:43:22.693Z,10.30
2019-04-03T18:45:48.561Z,11.90
2019-04-03T18:48:16.265Z,11.00
2019-04-03T18:50:42.173Z,12.40
2019-04-03T18:53:09.763Z,12.13
2019-04-03T18:55:35.779Z,11.50
2019-04-03T18:58:01.616Z,16.77
2019-04-03T19:00:30.438Z,13.50
2019-04-03T19:02:55.253Z,12.03
2019-04-03T19:05:21.118Z,12.87
2019-04-03T19:07:47.018Z,13.33
2019-04-03T19:10:13.276Z,12.10
2019-04-03T19:12:39.323Z,14.30
2019-04-03T19:15:05.506Z,13.50
2019-04-03T19:17:31.380Z,12.17
2019-04-03T19:20:09.671Z,12.93
2019-04-03T19:22:25.809Z,12.10
2019-04-03T19:24:52.186Z,13.07
2019-04-03T19:27:18.005Z,12.60
2019-04-03T19:29:43.848Z,12.47
2019-04-03T19:32:11.952Z,12.60
2019-04-03T19:34:37.462Z,12.03
2019-04-03T19:37:03.768Z,12.30
2019-04-03T19:39:29.624Z,11.83
2019-04-03T19:41:55.483Z,11.53
2019-04-03T19:44:21.395Z,13.43
2019-04-03T19:46:47.244Z,12.37
2019-04-03T19:49:13.128Z,14.27
2019-04-03T19:51:38.986Z,14.70
2019-04-03T19:54:04.836Z,13.10
2019-04-03T19:56:30.695Z,14.27
2019-04-03T19:58:59.340Z,14.60
2019-04-03T20:01:24.327Z,17.03
2019-04-03T20:03:50.218Z,13.80
2019-04-03T20:06:16.084Z,11.60
2019-04-03T20:08:42.062Z,12.50
2019-04-03T20:11:07.943Z,12.70
2019-04-03T20:13:33.803Z,12.20
2019-04-03T20:15:59.955Z,11.30
2019-04-03T20:18:26.610Z,13.80
2019-04-03T20:20:52.532Z,12.67
2019-04-03T20:23:18.389Z,13.17
2019-04-03T20:25:46.013Z,12.53
2019-04-03T20:28:12.205Z,13.23
2019-04-03T20:30:38.172Z,11.93
2019-04-03T20:33:04.050Z,14.30
2019-04-03T20:35:29.909Z,11.20
2019-04-03T20:37:57.102Z,12.80
2019-04-03T20:40:23.445Z,13.80
2019-04-03T20:42:49.311Z,13.23
2019-04-03T20:45:15.200Z,12.40
2019-04-03T20:47:41.096Z,14.47
2019-04-03T20:50:07.697Z,15.33
2019-04-03T20:52:33.769Z,17.60
2019-04-03T20:54:59.619Z,15.20
2019-04-03T20:57:25.466Z,15.97
2019-04-03T21:00:01.900Z,15.50
2019-04-03T21:02:19.203Z,15.67
2019-04-03T21:04:46.795Z,13.90
2019-04-03T21:07:13.126Z,13.90
2019-04-03T21:09:39.010Z,14.30
2019-04-03T21:12:05.564Z,14.60
2019-04-03T21:14:31.564Z,14.27
2019-04-03T21:16:57.398Z,14.23
2019-04-03T21:19:23.821Z,13.10
2019-04-03T21:21:49.697Z,11.93
2019-04-03T21:24:15.713Z,12.83
2019-04-03T21:26:41.575Z,14.23
2019-04-03T21:29:07.517Z,12.77
2019-04-03T21:31:33.369Z,11.90
2019-04-03T21:34:01.612Z,12.97
2019-04-03T21:36:27.025Z,13.57
2019-04-03T21:38:52.852Z,15.30
2019-04-03T21:41:20.754Z,13.83
2019-04-03T21:43:46.479Z,12.87
2019-04-03T21:46:12.344Z,15.70
2019-04-03T21:48:38.192Z,18.47
2019-04-03T21:51:04.935Z,16.40
2019-04-03T21:53:30.883Z,18.53
2019-04-03T21:55:56.754Z,18.80
2019-04-03T21:58:22.597Z,16.27
2019-04-03T22:00:58.819Z,19.00
2019-04-03T22:03:25.017Z,20.97
2019-04-03T22:05:51.012Z,18.80
2019-04-03T22:08:16.861Z,16.17
2019-04-03T22:10:42.709Z,19.20
2019-04-03T22:13:08.592Z,17.47
2019-04-03T22:15:34.396Z,16.70
2019-04-03T22:18:00.346Z,16.53
2019-04-03T22:20:27.745Z,17.83
2019-04-03T22:22:54.105Z,15.80
2019-04-03T22:25:19.949Z,16.40
2019-04-03T22:27:45.824Z,14.90
2019-04-03T22:30:11.783Z,10.50
2019-04-03T22:32:37.698Z,13.67
2019-04-03T22:35:04.827Z,15.70
2019-04-03T22:37:30.678Z,15.80
2019-04-03T22:39:56.559Z,14.20
2019-04-03T22:42:22.432Z,15.17
2019-04-03T22:44:48.449Z,14.47
2019-04-03T22:47:14.314Z,14.80
2019-04-03T22:49:40.249Z,12.30
2019-04-03T22:52:06.933Z,13.27
2019-04-03T22:54:33.895Z,15.40
2019-04-03T22:56:59.740Z,11.93
2019-04-03T22:59:25.597Z,12.77
2019-04-03T23:01:51.463Z,12.60
2019-04-03T23:04:17.304Z,13.00
2019-04-03T23:06:43.164Z,12.97
2019-04-03T23:09:09.019Z,12.03
2019-04-03T23:11:34.874Z,11.70
2019-04-03T23:14:02.945Z,11.83
2019-04-03T23:16:28.816Z,11.73
2019-04-03T23:18:54.957Z,12.30
2019-04-03T23:21:23.465Z,13.97
2019-04-03T23:23:48.557Z,13.40
2019-04-03T23:26:14.447Z,14.13
2019-04-03T23:28:40.305Z,13.97
2019-04-03T23:31:06.185Z,13.30
2019-04-03T23:33:32.023Z,13.80
2019-04-03T23:35:57.877Z,15.83
2019-04-03T23:38:24.826Z,13.70
2019-04-03T23:40:51.539Z,14.67
2019-04-03T23:43:17.402Z,14.00
2019-04-03T23:45:43.813Z,14.93
2019-04-03T23:48:10.115Z,14.03
2019-04-03T23:50:35.976Z,16.17
2019-04-03T23:53:01.859Z,15.70
2019-04-03T23:55:27.713Z,14.83
2019-04-03T23:57:53.588Z,14.23
